createdAt,value
2022-12-22T00:03:05.481Z,18.37
2022-12-22T00:06:27.442Z,19.98
2022-12-22T00:09:42.361Z,19.58
2022-12-22T00:12:50.972Z,18.75
2022-12-22T00:16:05.341Z,18.63
2022-12-22T00:19:14.246Z,18.67
2022-12-22T00:22:31.382Z,17.23
2022-12-22T00:25:33.197Z,18.02
2022-12-22T00:28:49.470Z,18.95
2022-12-22T00:31:58.360Z,20.17
2022-12-22T00:35:13.149Z,18.90
2022-12-22T00:38:25.392Z,20.92
2022-12-22T00:41:34.196Z,21.40
2022-12-22T00:44:42.340Z,21.90
2022-12-22T00:47:51.046Z,22.53
2022-12-22T00:50:59.347Z,23.30
2022-12-22T00:54:17.362Z,23.10
2022-12-22T00:57:21.369Z,23.90
2022-12-22T01:00:37.382Z,23.92
2022-12-22T01:03:39.528Z,22.93
2022-12-22T01:06:54.352Z,23.70
2022-12-22T01:10:10.417Z,22.27
2022-12-22T01:13:15.330Z,20.95
2022-12-22T01:16:30.354Z,23.83
2022-12-22T01:19:46.071Z,22.23
2022-12-22T01:23:01.354Z,20.90
2022-12-22T01:26:03.300Z,20.62
2022-12-22T01:29:18.420Z,21.30
2022-12-22T01:32:27.723Z,21.95
2022-12-22T01:35:42.349Z,19.97
2022-12-22T01:38:44.240Z,20.93
2022-12-22T01:41:59.453Z,21.70
2022-12-22T01:45:20.660Z,20.20
2022-12-22T01:48:38.409Z,19.77
2022-12-22T01:51:40.383Z,20.27
2022-12-22T01:54:56.373Z,19.60
2022-12-22T01:58:05.429Z,20.20
2022-12-22T02:01:14.623Z,21.62
2022-12-22T02:04:26.361Z,21.80
2022-12-22T02:08:08.691Z,22.83
2022-12-22T02:11:37.050Z,22.67
2022-12-22T02:15:04.515Z,21.35
2022-12-22T02:18:28.432Z,22.23
2022-12-22T02:22:03.398Z,21.35
2022-12-22T02:25:13.664Z,23.20
2022-12-22T02:28:30.535Z,21.77
2022-12-22T02:31:37.788Z,23.40
2022-12-22T02:34:52.415Z,22.50
2022-12-22T02:38:21.641Z,23.02
2022-12-22T02:41:50.261Z,22.33
2022-12-22T02:45:21.541Z,22.00
2022-12-22T02:48:47.433Z,22.23
2022-12-22T02:52:09.385Z,23.25
2022-12-22T02:55:18.429Z,21.08
2022-12-22T02:58:31.694Z,21.77
2022-12-22T03:01:50.513Z,21.43
2022-12-22T03:04:52.556Z,20.62
2022-12-22T03:08:08.690Z,20.48
2022-12-22T03:11:17.440Z,19.92
2022-12-22T03:14:26.078Z,18.23
2022-12-22T03:17:34.544Z,18.73
2022-12-22T03:20:57.392Z,19.27
2022-12-22T03:24:05.409Z,20.73
2022-12-22T03:27:20.452Z,21.55
2022-12-22T03:30:29.484Z,20.37
2022-12-22T03:33:45.465Z,20.63
2022-12-22T03:36:54.122Z,19.70
2022-12-22T03:40:08.437Z,19.62
2022-12-22T03:43:13.714Z,19.23
2022-12-22T03:46:28.433Z,20.53
2022-12-22T03:49:30.801Z,20.47
2022-12-22T03:52:45.481Z,20.73
2022-12-22T03:55:53.479Z,21.45
2022-12-22T03:59:08.462Z,21.20
2022-12-22T04:02:10.449Z,22.03
2022-12-22T04:05:25.423Z,23.17
2022-12-22T04:08:27.324Z,22.95
2022-12-22T04:11:42.428Z,23.45
2022-12-22T04:14:50.426Z,23.80
2022-12-22T04:18:12.455Z,22.57
2022-12-22T04:21:28.558Z,23.73
2022-12-22T04:24:37.128Z,22.98
2022-12-22T04:27:46.499Z,25.25
2022-12-22T04:30:55.070Z,24.45
2022-12-22T04:34:03.503Z,22.43
2022-12-22T04:37:17.142Z,23.03
2022-12-22T04:40:26.473Z,22.90
2022-12-22T04:43:35.427Z,23.35
2022-12-22T04:46:50.481Z,23.27
2022-12-22T04:49:52.348Z,23.83
2022-12-22T04:53:07.547Z,23.37
2022-12-22T04:56:22.446Z,23.58
2022-12-22T04:59:24.500Z,21.92
2022-12-22T05:02:39.671Z,22.35
2022-12-22T05:05:48.489Z,23.97
2022-12-22T05:09:03.586Z,21.47
2022-12-22T05:12:12.498Z,23.87
2022-12-22T05:15:37.463Z,22.13
2022-12-22T05:18:46.263Z,23.42
2022-12-22T05:22:01.483Z,21.93
2022-12-22T05:25:03.653Z,21.43
2022-12-22T05:28:18.536Z,22.08
2022-12-22T05:31:23.028Z,21.05
2022-12-22T05:34:37.480Z,21.52
2022-12-22T05:37:39.370Z,22.07
2022-12-22T05:41:01.530Z,22.63
2022-12-22T05:44:12.497Z,23.42
2022-12-22T05:47:21.158Z,23.20
2022-12-22T05:50:31.482Z,22.45
2022-12-22T05:53:40.774Z,23.10
2022-12-22T05:56:49.513Z,22.13
2022-12-22T06:00:04.586Z,23.95
2022-12-22T06:03:06.500Z,24.73
2022-12-22T06:06:21.457Z,22.95
2022-12-22T06:09:23.464Z,24.27
2022-12-22T06:12:39.580Z,23.73
2022-12-22T06:15:48.520Z,24.77
2022-12-22T06:19:03.836Z,24.17
2022-12-22T06:22:12.515Z,25.95
2022-12-22T06:25:27.512Z,25.67
2022-12-22T06:28:36.427Z,24.90
2022-12-22T06:31:51.776Z,25.55
2022-12-22T06:35:00.606Z,25.40
2022-12-22T06:38:09.279Z,26.23
2022-12-22T06:41:17.528Z,25.03
2022-12-22T06:44:33.538Z,24.17
2022-12-22T06:47:42.238Z,25.88
2022-12-22T06:51:04.532Z,25.90
2022-12-22T06:54:13.379Z,27.58
2022-12-22T06:57:21.537Z,27.83
2022-12-22T07:00:30.333Z,25.03
2022-12-22T07:03:45.562Z,25.92
2022-12-22T07:06:54.342Z,24.95
2022-12-22T07:10:02.584Z,25.27
2022-12-22T07:13:11.289Z,26.13
2022-12-22T07:16:19.665Z,24.27
2022-12-22T07:19:35.141Z,26.15
2022-12-22T07:22:43.489Z,24.42
2022-12-22T07:25:52.432Z,23.90
2022-12-22T07:29:00.617Z,25.90
2022-12-22T07:32:09.263Z,24.83
2022-12-22T07:35:23.563Z,24.60
2022-12-22T07:38:40.562Z,23.95
2022-12-22T07:41:49.253Z,25.92
2022-12-22T07:44:57.516Z,25.50
2022-12-22T07:48:06.494Z,24.87
2022-12-22T07:51:14.525Z,26.90
2022-12-22T07:54:23.969Z,26.30
2022-12-22T07:57:38.574Z,26.75
2022-12-22T08:00:54.592Z,26.03
2022-12-22T08:04:03.543Z,27.20
2022-12-22T08:07:11.574Z,26.33
2022-12-22T08:10:27.553Z,23.90
2022-12-22T08:13:36.971Z,25.80
2022-12-22T08:16:45.647Z,25.83
2022-12-22T08:20:08.597Z,25.83
2022-12-22T08:23:16.589Z,27.65
2022-12-22T08:26:41.577Z,28.17
2022-12-22T08:29:48.274Z,27.27
2022-12-22T08:33:02.524Z,30.63
2022-12-22T08:36:12.702Z,28.87
2022-12-22T08:39:29.592Z,27.40
2022-12-22T08:42:39.547Z,27.05
2022-12-22T08:45:48.349Z,27.65
2022-12-22T08:48:56.607Z,28.77
2022-12-22T08:52:18.759Z,28.20
2022-12-22T08:55:21.379Z,31.02
2022-12-22T08:58:36.788Z,30.40
2022-12-22T09:01:47.690Z,32.10
2022-12-22T09:04:56.344Z,28.47
2022-12-22T09:08:04.660Z,30.73
2022-12-22T09:11:13.474Z,30.02
2022-12-22T09:14:29.595Z,30.85
2022-12-22T09:17:31.393Z,28.25
2022-12-22T09:20:46.630Z,27.60
2022-12-22T09:23:48.443Z,27.50
2022-12-22T09:27:03.623Z,26.48
2022-12-22T09:30:19.584Z,28.12
2022-12-22T09:33:28.341Z,29.60
2022-12-22T09:36:37.671Z,29.13
2022-12-22T09:39:46.651Z,26.83
2022-12-22T09:42:55.686Z,25.25
2022-12-22T09:46:07.739Z,27.37
2022-12-22T09:49:21.756Z,27.30
2022-12-22T09:52:55.618Z,29.10
2022-12-22T09:55:57.511Z,26.47
2022-12-22T09:59:19.657Z,31.12
2022-12-22T10:02:40.704Z,32.22
2022-12-22T10:06:01.071Z,30.42
2022-12-22T10:13:02.636Z,28.47
2022-12-22T10:16:18.281Z,26.80
2022-12-22T10:19:39.654Z,27.08
2022-12-22T10:22:55.001Z,28.33
2022-12-22T10:26:33.880Z,28.77
2022-12-22T10:29:42.681Z,32.20
2022-12-22T10:33:03.711Z,29.50
2022-12-22T10:36:13.628Z,29.75
2022-12-22T10:39:26.675Z,30.20
2022-12-22T10:42:41.615Z,30.93
2022-12-22T10:45:53.015Z,30.83
2022-12-22T10:52:52.224Z,29.15
2022-12-22T10:56:12.663Z,30.17
2022-12-22T10:59:27.804Z,28.73
2022-12-22T11:02:38.566Z,28.70
2022-12-22T11:05:53.644Z,28.48
2022-12-22T11:09:23.995Z,29.70
2022-12-22T11:12:46.345Z,29.33
2022-12-22T11:16:21.731Z,29.00
2022-12-22T11:19:50.385Z,26.47
2022-12-22T11:23:09.705Z,29.35
2022-12-22T11:26:57.633Z,30.17
2022-12-22T11:30:07.294Z,30.00
2022-12-22T11:33:48.659Z,31.87
2022-12-22T11:37:27.160Z,31.67
2022-12-22T11:40:43.733Z,31.58
2022-12-22T11:44:13.733Z,31.80
2022-12-22T11:47:40.613Z,30.42
2022-12-22T11:51:09.164Z,29.60
2022-12-22T11:54:40.675Z,30.20
2022-12-22T11:58:08.696Z,28.58
2022-12-22T12:01:36.527Z,29.25
2022-12-22T12:05:25.707Z,30.05
2022-12-22T12:08:55.502Z,29.90
2022-12-22T12:12:19.650Z,29.33
2022-12-22T12:15:34.913Z,30.60
2022-12-22T12:19:11.017Z,28.38
2022-12-22T12:22:50.677Z,30.00
2022-12-22T12:26:16.694Z,30.10
2022-12-22T12:29:34.695Z,28.60
2022-12-22T12:32:58.073Z,28.08
2022-12-22T12:36:24.732Z,29.58
2022-12-22T12:39:47.637Z,29.00
2022-12-22T12:42:58.091Z,28.73
2022-12-22T12:46:42.767Z,27.90
2022-12-22T12:49:57.049Z,29.12
2022-12-22T12:53:15.680Z,30.23
2022-12-22T12:56:17.709Z,30.20
2022-12-22T12:59:53.679Z,28.07
2022-12-22T13:03:37.314Z,30.60
2022-12-22T13:06:52.232Z,28.42
2022-12-22T13:10:24.686Z,30.08
2022-12-22T13:13:48.520Z,31.02
2022-12-22T13:17:23.847Z,34.10
2022-12-22T13:20:46.741Z,29.17
2022-12-22T13:24:24.027Z,27.90
2022-12-22T13:27:32.710Z,28.02
2022-12-22T13:30:59.337Z,30.67
2022-12-22T13:34:14.784Z,29.37
2022-12-22T13:37:26.512Z,30.10
2022-12-22T13:40:49.859Z,29.33
2022-12-22T13:44:05.958Z,31.30
2022-12-22T13:47:20.793Z,30.92
2022-12-22T13:50:37.187Z,29.30
2022-12-22T13:54:07.987Z,28.40
2022-12-22T13:57:28.748Z,27.83
2022-12-22T14:00:38.180Z,30.23
2022-12-22T14:04:02.946Z,30.08
2022-12-22T14:07:16.567Z,31.27
2022-12-22T14:10:38.733Z,32.00
2022-12-22T14:13:47.654Z,29.95
2022-12-22T14:16:58.802Z,30.37
2022-12-22T14:20:35.734Z,29.83
2022-12-22T14:23:47.873Z,29.10
2022-12-22T14:27:02.822Z,29.67
2022-12-22T14:30:18.302Z,29.00
2022-12-22T14:33:38.808Z,30.52
2022-12-22T14:37:00.773Z,30.10
2022-12-22T14:40:33.333Z,30.53
2022-12-22T14:43:41.810Z,29.93
2022-12-22T14:47:18.765Z,31.87
2022-12-22T14:50:29.763Z,29.40
2022-12-22T14:53:54.885Z,29.05
2022-12-22T14:57:08.467Z,29.33
2022-12-22T15:00:44.738Z,29.30
2022-12-22T15:04:15.783Z,32.03
2022-12-22T15:08:04.119Z,32.90
2022-12-22T15:11:00.387Z,28.52
2022-12-22T15:14:09.859Z,32.10
2022-12-22T15:17:30.745Z,31.33
2022-12-22T15:20:39.886Z,31.83
2022-12-22T15:23:54.737Z,31.25
2022-12-22T15:27:03.764Z,35.38
2022-12-22T15:30:29.588Z,33.97
2022-12-22T15:33:39.097Z,33.00
2022-12-22T15:36:47.805Z,34.40
2022-12-22T15:39:56.540Z,34.25
2022-12-22T15:43:04.887Z,32.60
2022-12-22T15:46:23.854Z,34.63
2022-12-22T15:49:29.807Z,33.20
2022-12-22T15:52:44.867Z,34.78
2022-12-22T15:55:56.789Z,36.70
2022-12-22T15:59:12.930Z,34.42
2022-12-22T16:02:21.674Z,34.00
2022-12-22T16:05:30.864Z,34.87
2022-12-22T16:08:41.627Z,35.83
2022-12-22T16:11:49.785Z,35.80
2022-12-22T16:15:01.302Z,38.30
2022-12-22T16:18:10.876Z,34.60
2022-12-22T16:21:37.805Z,35.27
2022-12-22T16:24:54.927Z,33.88
2022-12-22T16:28:11.877Z,36.72
2022-12-22T16:31:19.651Z,37.33
2022-12-22T16:34:35.102Z,34.87
2022-12-22T16:37:44.850Z,34.90
2022-12-22T16:40:54.401Z,35.33
2022-12-22T16:44:05.994Z,34.95
2022-12-22T16:47:18.471Z,34.75
2022-12-22T16:50:36.868Z,34.43
2022-12-22T16:53:45.718Z,33.50
2022-12-22T16:56:53.809Z,35.45
2022-12-22T17:00:02.896Z,36.35
2022-12-22T17:03:21.921Z,36.35
2022-12-22T17:06:23.927Z,35.93
2022-12-22T17:09:51.913Z,36.53
2022-12-22T17:13:02.819Z,35.97
2022-12-22T17:16:19.667Z,33.67
2022-12-22T17:19:34.800Z,32.08
2022-12-22T17:22:37.779Z,33.97
2022-12-22T17:25:52.845Z,32.90
2022-12-22T17:29:07.969Z,31.60
2022-12-22T17:32:18.961Z,31.87
2022-12-22T17:35:33.836Z,31.12
2022-12-22T17:38:35.976Z,30.37
2022-12-22T17:41:56.726Z,30.93
2022-12-22T17:45:05.935Z,32.22
2022-12-22T17:48:22.864Z,30.77
2022-12-22T17:51:35.849Z,30.05
2022-12-22T17:54:46.317Z,29.80
2022-12-22T17:57:55.837Z,31.73
2022-12-22T18:01:10.836Z,29.55
2022-12-22T18:04:25.948Z,31.65
2022-12-22T18:07:43.661Z,29.35
2022-12-22T18:10:59.877Z,28.00
2022-12-22T18:14:07.822Z,29.20
2022-12-22T18:17:36.086Z,26.60
2022-12-22T18:20:45.988Z,28.35
2022-12-22T18:24:00.885Z,27.92
2022-12-22T18:27:09.909Z,27.17
2022-12-22T18:30:24.038Z,25.53
2022-12-22T18:33:32.861Z,26.85
2022-12-22T18:36:47.902Z,24.63
2022-12-22T18:39:56.741Z,25.15
2022-12-22T18:43:18.875Z,24.00
2022-12-22T18:46:27.597Z,25.27
2022-12-22T18:49:35.894Z,25.88
2022-12-22T18:52:44.945Z,26.90
2022-12-22T18:56:00.867Z,26.77
2022-12-22T18:59:29.928Z,24.97
2022-12-22T19:02:39.091Z,28.53
2022-12-22T19:05:49.317Z,26.08
2022-12-22T19:08:58.120Z,24.85
2022-12-22T19:12:25.889Z,24.08
2022-12-22T19:15:43.884Z,26.00
2022-12-22T19:19:05.876Z,25.33
2022-12-22T19:22:23.116Z,25.85
2022-12-22T19:25:32.401Z,26.20
2022-12-22T19:28:50.884Z,29.17
2022-12-22T19:31:59.967Z,30.00
2022-12-22T19:35:15.347Z,32.73
2022-12-22T19:38:27.937Z,31.87
2022-12-22T19:41:50.665Z,33.15
2022-12-22T19:45:13.032Z,33.17
2022-12-22T19:48:21.485Z,33.53
2022-12-22T19:51:36.884Z,32.60
2022-12-22T19:54:39.022Z,33.95
2022-12-22T19:57:57.955Z,32.88
2022-12-22T20:01:01.233Z,34.80
2022-12-22T20:04:19.021Z,34.30
2022-12-22T20:07:36.970Z,36.40
2022-12-22T20:10:42.356Z,35.42
2022-12-22T20:13:57.021Z,33.13
2022-12-22T20:17:05.651Z,34.95
2022-12-22T20:20:22.857Z,34.33
2022-12-22T20:23:35.850Z,31.93
2022-12-22T20:26:54.652Z,31.37
2022-12-22T20:30:02.906Z,36.10
2022-12-22T20:33:12.489Z,29.63
2022-12-22T20:36:34.011Z,28.77
2022-12-22T20:39:49.924Z,28.80
2022-12-22T20:42:52.224Z,26.58
2022-12-22T20:46:17.138Z,27.67
2022-12-22T20:49:25.999Z,28.20
2022-12-22T20:52:34.985Z,30.90
2022-12-22T20:55:43.952Z,32.60
2022-12-22T20:58:52.909Z,31.98
2022-12-22T21:02:01.792Z,32.20
2022-12-22T21:05:16.913Z,34.05
2022-12-22T21:08:22.284Z,33.23
2022-12-22T21:11:37.921Z,34.37
2022-12-22T21:14:52.894Z,35.08
2022-12-22T21:18:01.632Z,34.45
2022-12-22T21:21:17.912Z,33.25
2022-12-22T21:24:32.958Z,33.23
2022-12-22T21:27:41.919Z,31.40
2022-12-22T21:30:53.438Z,33.42
2022-12-22T21:34:01.906Z,31.85
2022-12-22T21:37:23.907Z,33.75
2022-12-22T21:40:33.207Z,32.73
2022-12-22T21:43:41.933Z,30.23
2022-12-22T21:46:57.965Z,32.63
2022-12-22T21:49:59.937Z,30.55
2022-12-22T21:53:21.790Z,28.80
2022-12-22T21:56:30.736Z,31.50
2022-12-22T21:59:39.057Z,29.40
2022-12-22T22:02:48.442Z,28.48
2022-12-22T22:05:56.975Z,31.50
2022-12-22T22:09:05.904Z,30.80
2022-12-22T22:12:28.003Z,29.30
2022-12-22T22:15:44.022Z,29.57
2022-12-22T22:18:47.729Z,29.27
2022-12-22T22:22:10.010Z,30.17
2022-12-22T22:25:19.945Z,31.10
2022-12-22T22:28:35.956Z,28.43
2022-12-22T22:31:37.967Z,30.60
2022-12-22T22:34:52.938Z,29.35
2022-12-22T22:37:54.772Z,29.35
2022-12-22T22:41:10.965Z,32.75
2022-12-22T22:44:12.841Z,26.47
2022-12-22T22:47:29.015Z,27.60
2022-12-22T22:50:31.097Z,26.20
2022-12-22T22:53:46.061Z,25.65
2022-12-22T22:57:00.982Z,25.35
2022-12-22T23:00:12.819Z,24.53
2022-12-22T23:03:22.145Z,23.57
2022-12-22T23:06:30.661Z,23.12
2022-12-22T23:09:38.928Z,22.50
2022-12-22T23:12:53.981Z,22.27
2022-12-22T23:16:08.030Z,21.97
2022-12-22T23:19:31.045Z,22.87
2022-12-22T23:22:39.795Z,23.45
2022-12-22T23:25:57.101Z,22.85
2022-12-22T23:29:03.290Z,22.10
2022-12-22T23:32:20.031Z,22.33
2022-12-22T23:35:21.986Z,23.30
2022-12-22T23:38:38.160Z,21.87
2022-12-22T23:41:40.107Z,21.27
2022-12-22T23:44:54.976Z,23.35
2022-12-22T23:48:04.436Z,22.60
2022-12-22T23:51:16.014Z,20.93
2022-12-22T23:54:24.812Z,20.85
2022-12-22T23:57:33.032Z,20.50
